sensor_id;sensor_type;location;lat;lon;timestamp;pressure;altitude;pressure_sealevel;temperature;humidity
52839;BME280;39219;53.678;9.856;2024-03-23T00:53:51;100799.50;;;5.56;91.80
52839;BME280;39219;53.678;9.856;2024-03-23T00:56:16;100806.78;;;5.46;92.00
52839;BME280;39219;53.678;9.856;2024-03-23T00:58:43;100808.59;;;5.42;92.06
52839;BME280;39219;53.678;9.856;2024-03-23T01:01:08;100804.16;;;5.44;92.18
52839;BME280;39219;53.678;9.856;2024-03-23T01:03:35;100792.91;;;5.38;91.97
52839;BME280;39219;53.678;9.856;2024-03-23T01:06:03;100790.28;;;5.38;92.35
52839;BME280;39219;53.678;9.856;2024-03-23T01:08:29;100783.56;;;5.23;92.36
52839;BME280;39219;53.678;9.856;2024-03-23T01:10:57;100786.28;;;5.20;92.38
52839;BME280;39219;53.678;9.856;2024-03-23T01:13:24;100786.28;;;5.20;92.69
52839;BME280;39219;53.678;9.856;2024-03-23T01:15:49;100781.91;;;5.19;92.73
52839;BME280;39219;53.678;9.856;2024-03-23T01:18:16;100779.31;;;5.18;92.84
52839;BME280;39219;53.678;9.856;2024-03-23T01:20:43;100767.84;;;5.20;92.82
52839;BME280;39219;53.678;9.856;2024-03-23T01:23:09;100760.75;;;5.21;92.83
52839;BME280;39219;53.678;9.856;2024-03-23T01:25:35;100765.09;;;5.23;92.84
52839;BME280;39219;53.678;9.856;2024-03-23T01:28:03;100766.03;;;5.21;92.96
52839;BME280;39219;53.678;9.856;2024-03-23T01:30:29;100766.16;;;5.16;93.08
52839;BME280;39219;53.678;9.856;2024-03-23T01:32:55;100762.47;;;5.23;93.02
52839;BME280;39219;53.678;9.856;2024-03-23T01:35:21;100749.25;;;5.26;93.25
52839;BME280;39219;53.678;9.856;2024-03-23T01:37:47;100744.69;;;5.31;93.44
52839;BME280;39219;53.678;9.856;2024-03-23T01:40:13;100745.63;;;5.29;93.49
52839;BME280;39219;53.678;9.856;2024-03-23T01:42:39;100743.13;;;5.24;93.54
52839;BME280;39219;53.678;9.856;2024-03-23T01:45:08;100739.56;;;5.25;93.35
52839;BME280;39219;53.678;9.856;2024-03-23T01:47:35;100726.50;;;5.21;93.63
52839;BME280;39219;53.678;9.856;2024-03-23T01:50:00;100728.34;;;5.17;93.62
52839;BME280;39219;53.678;9.856;2024-03-23T01:52:27;100716.97;;;5.15;93.69
52839;BME280;39219;53.678;9.856;2024-03-23T01:54:52;100712.66;;;5.11;93.89
52839;BME280;39219;53.678;9.856;2024-03-23T01:57:19;100720.72;;;5.07;93.89
52839;BME280;39219;53.678;9.856;2024-03-23T01:59:46;100714.47;;;5.09;93.92
52839;BME280;39219;53.678;9.856;2024-03-23T02:02:14;100709.19;;;5.09;94.07
52839;BME280;39219;53.678;9.856;2024-03-23T02:04:39;100710.13;;;5.08;93.91
52839;BME280;39219;53.678;9.856;2024-03-23T02:07:06;100704.06;;;5.03;94.12
52839;BME280;39219;53.678;9.856;2024-03-23T02:09:32;100704.16;;;5.00;94.11
52839;BME280;39219;53.678;9.856;2024-03-23T02:12:01;100713.06;;;4.95;94.13
52839;BME280;39219;53.678;9.856;2024-03-23T02:14:27;100699.03;;;4.94;94.21
52839;BME280;39219;53.678;9.856;2024-03-23T02:16:53;100694.69;;;4.92;94.25
52839;BME280;39219;53.678;9.856;2024-03-23T02:19:20;100704.34;;;4.93;94.18
52839;BME280;39219;53.678;9.856;2024-03-23T02:21:46;100695.69;;;4.86;94.55
52839;BME280;39219;53.678;9.856;2024-03-23T02:24:14;100689.47;;;4.90;94.27
52839;BME280;39219;53.678;9.856;2024-03-23T02:26:40;100683.25;;;4.93;94.49
52839;BME280;39219;53.678;9.856;2024-03-23T02:29:06;100672.72;;;4.93;94.77
52839;BME280;39219;53.678;9.856;2024-03-23T02:31:33;100674.56;;;4.88;94.93
52839;BME280;39219;53.678;9.856;2024-03-23T02:33:59;100675.44;;;4.88;94.90
52839;BME280;39219;53.678;9.856;2024-03-23T02:36:25;100679.16;;;4.81;94.90
52839;BME280;39219;53.678;9.856;2024-03-23T02:38:51;100672.91;;;4.84;95.10
52839;BME280;39219;53.678;9.856;2024-03-23T02:41:19;100687.19;;;4.75;94.91
52839;BME280;39219;53.678;9.856;2024-03-23T02:43:48;100684.69;;;4.69;95.14
52839;BME280;39219;53.678;9.856;2024-03-23T02:46:15;100677.72;;;4.67;95.21
52839;BME280;39219;53.678;9.856;2024-03-23T02:48:40;100677.66;;;4.68;94.93
52839;BME280;39219;53.678;9.856;2024-03-23T02:51:07;100676.81;;;4.68;95.23
52839;BME280;39219;53.678;9.856;2024-03-23T02:53:32;100675.13;;;4.65;95.12
52839;BME280;39219;53.678;9.856;2024-03-23T02:55:59;100662.75;;;4.69;95.08
52839;BME280;39219;53.678;9.856;2024-03-23T02:58:26;100653.06;;;4.69;95.44
52839;BME280;39219;53.678;9.856;2024-03-23T03:00:52;100651.31;;;4.70;95.33
52839;BME280;39219;53.678;9.856;2024-03-23T03:03:17;100648.44;;;4.79;94.98
52839;BME280;39219;53.678;9.856;2024-03-23T03:05:44;100649.38;;;4.76;95.31
52839;BME280;39219;53.678;9.856;2024-03-23T03:08:09;100641.28;;;4.84;95.37
52839;BME280;39219;53.678;9.856;2024-03-23T03:10:36;100629.91;;;4.83;95.61
52839;BME280;39219;53.678;9.856;2024-03-23T03:13:01;100630.69;;;4.87;95.41
52839;BME280;39219;53.678;9.856;2024-03-23T03:15:29;100635.25;;;4.80;95.53
52839;BME280;39219;53.678;9.856;2024-03-23T03:17:55;100634.41;;;4.80;95.37
52839;BME280;39219;53.678;9.856;2024-03-23T03:20:21;100624.81;;;4.76;95.17
52839;BME280;39219;53.678;9.856;2024-03-23T03:22:48;100630.06;;;4.77;95.55
52839;BME280;39219;53.678;9.856;2024-03-23T03:25:15;100632.59;;;4.80;95.55
52839;BME280;39219;53.678;9.856;2024-03-23T03:27:40;100628.34;;;4.75;95.23
52839;BME280;39219;53.678;9.856;2024-03-23T03:30:07;100626.66;;;4.72;95.46
52839;BME280;39219;53.678;9.856;2024-03-23T03:32:35;100615.25;;;4.72;95.56
52839;BME280;39219;53.678;9.856;2024-03-23T03:35:01;100613.47;;;4.74;95.32
52839;BME280;39219;53.678;9.856;2024-03-23T03:37:27;100618.78;;;4.71;95.38
52839;BME280;39219;53.678;9.856;2024-03-23T03:39:54;100611.94;;;4.64;95.53
52839;BME280;39219;53.678;9.856;2024-03-23T03:42:19;100610.13;;;4.66;95.31
52839;BME280;39219;53.678;9.856;2024-03-23T03:44:46;100611.16;;;4.60;95.40
52839;BME280;39219;53.678;9.856;2024-03-23T03:47:11;100605.88;;;4.60;95.38
52839;BME280;39219;53.678;9.856;2024-03-23T03:49:39;100597.03;;;4.63;95.60
52839;BME280;39219;53.678;9.856;2024-03-23T03:52:04;100598.81;;;4.61;95.66
52839;BME280;39219;53.678;9.856;2024-03-23T03:54:31;100593.56;;;4.61;95.44
52839;BME280;39219;53.678;9.856;2024-03-23T03:56:56;100584.16;;;4.50;95.29
52839;BME280;39219;53.678;9.856;2024-03-23T03:59:23;100579.16;;;4.40;95.45
52839;BME280;39219;53.678;9.856;2024-03-23T04:01:48;100582.56;;;4.43;95.21
52839;BME280;39219;53.678;9.856;2024-03-23T04:04:15;100580.72;;;4.47;95.46
52839;BME280;39219;53.678;9.856;2024-03-23T04:06:43;100580.03;;;4.40;95.61
52839;BME280;39219;53.678;9.856;2024-03-23T04:09:09;100577.38;;;4.40;95.69
52839;BME280;39219;53.678;9.856;2024-03-23T04:11:35;100569.47;;;4.40;95.18
52839;BME280;39219;53.678;9.856;2024-03-23T04:14:02;100571.47;;;4.31;95.35
52839;BME280;39219;53.678;9.856;2024-03-23T04:16:27;100568.78;;;4.32;95.46
52839;BME280;39219;53.678;9.856;2024-03-23T04:18:54;100577.56;;;4.31;95.64
52839;BME280;39219;53.678;9.856;2024-03-23T04:21:20;100574.81;;;4.37;95.20
52839;BME280;39219;53.678;9.856;2024-03-23T04:23:47;100563.47;;;4.34;95.65
52839;BME280;39219;53.678;9.856;2024-03-23T04:26:13;100565.19;;;4.35;95.45
52839;BME280;39219;53.678;9.856;2024-03-23T04:28:40;100559.09;;;4.34;95.93
52839;BME280;39219;53.678;9.856;2024-03-23T04:31:05;100551.06;;;4.39;95.75
52839;BME280;39219;53.678;9.856;2024-03-23T04:33:32;100541.34;;;4.41;95.94
52839;BME280;39219;53.678;9.856;2024-03-23T04:35:57;100546.72;;;4.38;96.04
52839;BME280;39219;53.678;9.856;2024-03-23T04:38:24;100561.69;;;4.36;95.95
52839;BME280;39219;53.678;9.856;2024-03-23T04:40:55;100569.66;;;4.33;96.04
52839;BME280;39219;53.678;9.856;2024-03-23T04:43:21;100567.84;;;4.35;96.08
52839;BME280;39219;53.678;9.856;2024-03-23T04:45:48;100568.66;;;4.37;96.10
52839;BME280;39219;53.678;9.856;2024-03-23T04:48:13;100572.16;;;4.37;96.37
52839;BME280;39219;53.678;9.856;2024-03-23T04:50:40;100571.19;;;4.41;96.29
52839;BME280;39219;53.678;9.856;2024-03-23T04:53:07;100579.97;;;4.42;96.51
52839;BME280;39219;53.678;9.856;2024-03-23T04:55:33;100569.44;;;4.42;96.46
52839;BME280;39219;53.678;9.856;2024-03-23T04:58:01;100565.97;;;4.40;96.45
52839;BME280;39219;53.678;9.856;2024-03-23T05:00:26;100558.00;;;4.43;96.51
52839;BME280;39219;53.678;9.856;2024-03-23T05:02:53;100552.84;;;4.38;96.14
52839;BME280;39219;53.678;9.856;2024-03-23T05:05:18;100555.50;;;4.38;96.01
52839;BME280;39219;53.678;9.856;2024-03-23T05:07:45;100549.31;;;4.39;96.17
52839;BME280;39219;53.678;9.856;2024-03-23T05:10:10;100547.50;;;4.41;95.94
52839;BME280;39219;53.678;9.856;2024-03-23T05:12:38;100543.97;;;4.42;96.22
52839;BME280;39219;53.678;9.856;2024-03-23T05:15:06;100549.25;;;4.41;96.12
52839;BME280;39219;53.678;9.856;2024-03-23T05:17:32;100550.91;;;4.45;96.22
52839;BME280;39219;53.678;9.856;2024-03-23T05:19:58;100546.56;;;4.44;96.24
52839;BME280;39219;53.678;9.856;2024-03-23T05:22:24;100543.94;;;4.44;96.10
52839;BME280;39219;53.678;9.856;2024-03-23T05:24:50;100536.09;;;4.42;96.19
52839;BME280;39219;53.678;9.856;2024-03-23T05:27:17;100539.50;;;4.46;95.88
52839;BME280;39219;53.678;9.856;2024-03-23T05:29:42;100542.03;;;4.49;95.98
52839;BME280;39219;53.678;9.856;2024-03-23T05:32:10;100540.28;;;4.49;96.07
52839;BME280;39219;53.678;9.856;2024-03-23T05:34:36;100538.47;;;4.51;95.82
52839;BME280;39219;53.678;9.856;2024-03-23T05:37:02;100534.09;;;4.52;95.80
52839;BME280;39219;53.678;9.856;2024-03-23T05:39:28;100535.81;;;4.53;95.64
52839;BME280;39219;53.678;9.856;2024-03-23T05:41:54;100529.66;;;4.52;95.67
52839;BME280;39219;53.678;9.856;2024-03-23T05:44:20;100530.50;;;4.54;95.83
52839;BME280;39219;53.678;9.856;2024-03-23T05:46:46;100535.75;;;4.54;95.61
52839;BME280;39219;53.678;9.856;2024-03-23T05:49:15;100532.16;;;4.59;95.68
52839;BME280;39219;53.678;9.856;2024-03-23T05:51:42;100529.50;;;4.60;95.42
52839;BME280;39219;53.678;9.856;2024-03-23T05:54:08;100528.63;;;4.60;95.59
52839;BME280;39219;53.678;9.856;2024-03-23T05:56:34;100524.28;;;4.57;95.41
52839;BME280;39219;53.678;9.856;2024-03-23T05:59:00;100529.56;;;4.57;95.37
52839;BME280;39219;53.678;9.856;2024-03-23T06:01:28;100519.13;;;4.52;95.03
52839;BME280;39219;53.678;9.856;2024-03-23T06:03:54;100521.56;;;4.62;94.92
52839;BME280;39219;53.678;9.856;2024-03-23T06:06:21;100524.28;;;4.57;94.84
52839;BME280;39219;53.678;9.856;2024-03-23T06:08:47;100517.19;;;4.61;94.94
52839;BME280;39219;53.678;9.856;2024-03-23T06:11:14;100516.19;;;4.65;94.71
52839;BME280;39219;53.678;9.856;2024-03-23T06:13:39;100510.94;;;4.65;94.54
52839;BME280;39219;53.678;9.856;2024-03-23T06:16:06;100506.22;;;4.77;94.61
52839;BME280;39219;53.678;9.856;2024-03-23T06:18:32;100514.47;;;4.97;94.65
52839;BME280;39219;53.678;9.856;2024-03-23T06:20:58;100513.25;;;5.10;94.49
52839;BME280;39219;53.678;9.856;2024-03-23T06:23:25;100514.94;;;5.13;93.66
52839;BME280;39219;53.678;9.856;2024-03-23T06:25:52;100511.47;;;5.11;93.26
52839;BME280;39219;53.678;9.856;2024-03-23T06:28:17;100509.63;;;5.14;93.33
52839;BME280;39219;53.678;9.856;2024-03-23T06:30:46;100507.91;;;5.12;93.07
52839;BME280;39219;53.678;9.856;2024-03-23T06:33:11;100507.81;;;5.16;92.96
52839;BME280;39219;53.678;9.856;2024-03-23T06:35:38;100504.13;;;5.22;92.83
52839;BME280;39219;53.678;9.856;2024-03-23T06:38:04;100509.06;;;5.34;92.66
52839;BME280;39219;53.678;9.856;2024-03-23T06:40:31;100505.09;;;5.49;92.29
52839;BME280;39219;53.678;9.856;2024-03-23T06:42:57;100500.59;;;5.54;91.27
52839;BME280;39219;53.678;9.856;2024-03-23T06:45:23;100504.88;;;5.58;91.04
52839;BME280;39219;53.678;9.856;2024-03-23T06:47:49;100494.50;;;5.52;90.85
52839;BME280;39219;53.678;9.856;2024-03-23T06:50:16;100503.66;;;5.68;91.23
52839;BME280;39219;53.678;9.856;2024-03-23T06:52:43;100486.50;;;5.82;90.20
52839;BME280;39219;53.678;9.856;2024-03-23T06:55:08;100489.47;;;5.72;89.46
52839;BME280;39219;53.678;9.856;2024-03-23T06:57:36;100486.66;;;5.78;89.31
52839;BME280;39219;53.678;9.856;2024-03-23T07:00:02;100494.09;;;5.94;89.94
52839;BME280;39219;53.678;9.856;2024-03-23T07:02:29;100491.56;;;6.45;88.05
52839;BME280;39219;53.678;9.856;2024-03-23T07:04:54;100494.66;;;7.08;85.52
52839;BME280;39219;53.678;9.856;2024-03-23T07:07:22;100484.56;;;6.95;84.15
52839;BME280;39219;53.678;9.856;2024-03-23T07:09:47;100483.09;;;7.82;84.33
52839;BME280;39219;53.678;9.856;2024-03-23T07:12:14;100487.91;;;9.01;81.23
52839;BME280;39219;53.678;9.856;2024-03-23T07:14:40;100486.28;;;9.94;74.34
52839;BME280;39219;53.678;9.856;2024-03-23T07:17:07;100481.59;;;10.53;72.38
52839;BME280;39219;53.678;9.856;2024-03-23T07:19:32;100475.59;;;11.18;69.13
52839;BME280;39219;53.678;9.856;2024-03-23T07:21:59;100482.09;;;10.61;70.39
52839;BME280;39219;53.678;9.856;2024-03-23T07:24:24;100478.59;;;9.31;72.03
52839;BME280;39219;53.678;9.856;2024-03-23T07:26:51;100482.47;;;8.42;76.34
52839;BME280;39219;53.678;9.856;2024-03-23T07:29:19;100484.69;;;8.52;75.87
52839;BME280;39219;53.678;9.856;2024-03-23T07:31:47;100470.44;;;8.55;76.39
52839;BME280;39219;53.678;9.856;2024-03-23T07:34:12;100472.56;;;10.22;72.85
52839;BME280;39219;53.678;9.856;2024-03-23T07:36:39;100476.78;;;10.78;68.23
52839;BME280;39219;53.678;9.856;2024-03-23T07:39:05;100466.19;;;11.61;66.12
52839;BME280;39219;53.678;9.856;2024-03-23T07:41:33;100467.66;;;12.15;63.05
52839;BME280;39219;53.678;9.856;2024-03-23T07:43:58;100469.34;;;12.16;63.33
52839;BME280;39219;53.678;9.856;2024-03-23T07:46:25;100465.56;;;12.04;62.79
52839;BME280;39219;53.678;9.856;2024-03-23T07:48:52;100468.06;;;12.68;59.53
52839;BME280;39219;53.678;9.856;2024-03-23T07:51:20;100470.91;;;12.04;61.64
52839;BME280;39219;53.678;9.856;2024-03-23T07:53:46;100467.66;;;11.99;64.08
52839;BME280;39219;53.678;9.856;2024-03-23T07:56:14;100466.28;;;12.98;59.52
52839;BME280;39219;53.678;9.856;2024-03-23T07:58:40;100465.97;;;13.89;56.18
52839;BME280;39219;53.678;9.856;2024-03-23T08:01:08;100474.13;;;12.56;60.17
52839;BME280;39219;53.678;9.856;2024-03-23T08:03:35;100452.59;;;13.89;56.93
52839;BME280;39219;53.678;9.856;2024-03-23T08:06:09;100453.72;;;14.40;57.01
52839;BME280;39219;53.678;9.856;2024-03-23T08:08:35;100445.00;;;15.02;52.33
52839;BME280;39219;53.678;9.856;2024-03-23T08:11:02;100451.91;;;14.67;54.97
52839;BME280;39219;53.678;9.856;2024-03-23T08:13:28;100446.94;;;14.07;53.97
52839;BME280;39219;53.678;9.856;2024-03-23T08:15:56;100447.94;;;14.19;55.83
52839;BME280;39219;53.678;9.856;2024-03-23T08:18:22;100441.72;;;15.11;51.75
52839;BME280;39219;53.678;9.856;2024-03-23T08:20:55;100436.38;;;15.61;51.07
52839;BME280;39219;53.678;9.856;2024-03-23T08:23:22;100444.66;;;14.81;51.25
52839;BME280;39219;53.678;9.856;2024-03-23T08:25:49;100443.03;;;13.99;52.69
52839;BME280;39219;53.678;9.856;2024-03-23T08:28:14;100445.66;;;13.58;55.96
52839;BME280;39219;53.678;9.856;2024-03-23T08:30:40;100434.25;;;13.97;52.59
52839;BME280;39219;53.678;9.856;2024-03-23T08:33:06;100435.94;;;14.65;55.02
52839;BME280;39219;53.678;9.856;2024-03-23T08:35:32;100425.34;;;15.41;53.94
52839;BME280;39219;53.678;9.856;2024-03-23T08:37:59;100417.16;;;15.67;49.81
52839;BME280;39219;53.678;9.856;2024-03-23T08:40:27;100425.94;;;14.01;55.02
52839;BME280;39219;53.678;9.856;2024-03-23T08:42:53;100420.44;;;14.17;53.93
52839;BME280;39219;53.678;9.856;2024-03-23T08:45:19;100422.22;;;14.57;52.21
52839;BME280;39219;53.678;9.856;2024-03-23T08:47:45;100422.66;;;13.42;51.35
52839;BME280;39219;53.678;9.856;2024-03-23T08:50:11;100425.19;;;11.63;57.77
52839;BME280;39219;53.678;9.856;2024-03-23T08:52:37;100419.72;;;12.88;56.73
52839;BME280;39219;53.678;9.856;2024-03-23T08:55:03;100401.03;;;12.88;54.89
52839;BME280;39219;53.678;9.856;2024-03-23T08:57:30;100412.22;;;11.57;58.22
52839;BME280;39219;53.678;9.856;2024-03-23T08:59:57;100421.38;;;10.52;60.36
52839;BME280;39219;53.678;9.856;2024-03-23T09:02:23;100427.19;;;10.60;60.58
52839;BME280;39219;53.678;9.856;2024-03-23T09:04:49;100417.06;;;11.01;62.21
52839;BME280;39219;53.678;9.856;2024-03-23T09:07:15;100419.41;;;11.40;59.86
52839;BME280;39219;53.678;9.856;2024-03-23T09:09:42;100409.81;;;11.20;59.56
52839;BME280;39219;53.678;9.856;2024-03-23T09:12:07;100423.50;;;10.80;59.98
52839;BME280;39219;53.678;9.856;2024-03-23T09:14:35;100426.97;;;11.15;61.46
52839;BME280;39219;53.678;9.856;2024-03-23T09:17:01;100417.19;;;11.15;59.00
52839;BME280;39219;53.678;9.856;2024-03-23T09:19:28;100424.84;;;10.71;62.29
52839;BME280;39219;53.678;9.856;2024-03-23T09:21:54;100424.72;;;10.03;63.77
52839;BME280;39219;53.678;9.856;2024-03-23T09:24:20;100411.41;;;9.49;64.32
52839;BME280;39219;53.678;9.856;2024-03-23T09:26:46;100416.22;;;10.49;63.75
52839;BME280;39219;53.678;9.856;2024-03-23T09:29:13;100415.91;;;10.90;59.15
52839;BME280;39219;53.678;9.856;2024-03-23T09:31:39;100420.59;;;10.50;59.86
52839;BME280;39219;53.678;9.856;2024-03-23T09:34:06;100417.00;;;10.34;61.25
52839;BME280;39219;53.678;9.856;2024-03-23T09:36:32;100410.19;;;10.46;58.69
52839;BME280;39219;53.678;9.856;2024-03-23T09:38:58;100405.25;;;10.55;57.51
52839;BME280;39219;53.678;9.856;2024-03-23T09:41:23;100408.09;;;10.52;57.31
52839;BME280;39219;53.678;9.856;2024-03-23T09:43:52;100402.28;;;10.61;58.48
52839;BME280;39219;53.678;9.856;2024-03-23T09:46:17;100404.16;;;10.59;58.05
52839;BME280;39219;53.678;9.856;2024-03-23T09:48:46;100409.50;;;10.42;58.64
52839;BME280;39219;53.678;9.856;2024-03-23T09:51:12;100393.84;;;10.19;59.46
52839;BME280;39219;53.678;9.856;2024-03-23T09:53:38;100408.72;;;9.86;60.79
52839;BME280;39219;53.678;9.856;2024-03-23T09:56:04;100401.97;;;9.23;63.14
52839;BME280;39219;53.678;9.856;2024-03-23T09:58:31;100403.22;;;9.53;65.07
52839;BME280;39219;53.678;9.856;2024-03-23T10:00:57;100405.09;;;10.06;62.51
52839;BME280;39219;53.678;9.856;2024-03-23T10:03:23;100403.56;;;10.71;61.96
52839;BME280;39219;53.678;9.856;2024-03-23T10:06:00;100393.44;;;11.28;58.29
52839;BME280;39219;53.678;9.856;2024-03-23T10:08:28;100391.56;;;10.97;57.90
52839;BME280;39219;53.678;9.856;2024-03-23T10:10:54;100391.16;;;10.19;58.61
52839;BME280;39219;53.678;9.856;2024-03-23T10:13:24;100387.47;;;9.86;60.31
52839;BME280;39219;53.678;9.856;2024-03-23T10:15:55;100388.84;;;9.76;61.14
52839;BME280;39219;53.678;9.856;2024-03-23T10:18:22;100382.75;;;9.74;61.93
52839;BME280;39219;53.678;9.856;2024-03-23T10:20:51;100390.78;;;9.72;62.28
52839;BME280;39219;53.678;9.856;2024-03-23T10:23:19;100384.19;;;9.81;61.31
52839;BME280;39219;53.678;9.856;2024-03-23T10:25:44;100384.03;;;9.84;60.89
52839;BME280;39219;53.678;9.856;2024-03-23T10:28:11;100383.38;;;10.33;61.18
52839;BME280;39219;53.678;9.856;2024-03-23T10:30:37;100388.59;;;10.86;59.77
52839;BME280;39219;53.678;9.856;2024-03-23T10:33:07;100377.97;;;11.19;57.09
52839;BME280;39219;53.678;9.856;2024-03-23T10:35:33;100376.19;;;11.35;56.47
52839;BME280;39219;53.678;9.856;2024-03-23T10:38:00;100362.06;;;11.81;54.17
52839;BME280;39219;53.678;9.856;2024-03-23T10:40:27;100361.94;;;12.43;51.98
52839;BME280;39219;53.678;9.856;2024-03-23T10:42:57;100356.06;;;13.24;49.79
52839;BME280;39219;53.678;9.856;2024-03-23T10:45:23;100360.78;;;12.91;47.58
52839;BME280;39219;53.678;9.856;2024-03-23T10:47:51;100358.63;;;13.40;48.38
52839;BME280;39219;53.678;9.856;2024-03-23T10:50:17;100351.56;;;13.25;47.39
52839;BME280;39219;53.678;9.856;2024-03-23T10:52:46;100357.03;;;13.23;48.88
52839;BME280;39219;53.678;9.856;2024-03-23T10:55:14;100355.44;;;12.91;47.56
52839;BME280;39219;53.678;9.856;2024-03-23T10:57:45;100341.50;;;12.72;50.69
52839;BME280;39219;53.678;9.856;2024-03-23T11:00:13;100334.22;;;13.32;47.04
52839;BME280;39219;53.678;9.856;2024-03-23T11:02:41;100343.03;;;13.75;49.42
52839;BME280;39219;53.678;9.856;2024-03-23T11:05:28;100342.50;;;13.42;46.53
52839;BME280;39219;53.678;9.856;2024-03-23T11:07:54;100336.38;;;12.83;47.03
52839;BME280;39219;53.678;9.856;2024-03-23T11:10:27;100347.38;;;12.49;48.15
52839;BME280;39219;53.678;9.856;2024-03-23T11:12:56;100352.84;;;11.71;52.00
52839;BME280;39219;53.678;9.856;2024-03-23T11:15:22;100354.75;;;11.85;51.99
52839;BME280;39219;53.678;9.856;2024-03-23T11:18:06;100348.72;;;11.50;52.41
52839;BME280;39219;53.678;9.856;2024-03-23T11:20:34;100356.44;;;11.39;54.26
52839;BME280;39219;53.678;9.856;2024-03-23T11:23:01;100345.78;;;11.23;53.88
52839;BME280;39219;53.678;9.856;2024-03-23T11:25:27;100352.03;;;11.38;54.04
52839;BME280;39219;53.678;9.856;2024-03-23T11:27:56;100345.09;;;11.82;55.53
52839;BME280;39219;53.678;9.856;2024-03-23T11:30:23;100332.03;;;12.38;54.88
52839;BME280;39219;53.678;9.856;2024-03-23T11:32:50;100329.78;;;12.75;49.83
52839;BME280;39219;53.678;9.856;2024-03-23T11:35:29;100332.88;;;13.25;48.33
52839;BME280;39219;53.678;9.856;2024-03-23T11:38:04;100321.53;;;13.21;46.67
52839;BME280;39219;53.678;9.856;2024-03-23T11:40:30;100331.91;;;12.70;47.37
52839;BME280;39219;53.678;9.856;2024-03-23T11:42:59;100341.16;;;11.89;50.41
52839;BME280;39219;53.678;9.856;2024-03-23T11:45:25;100353.84;;;10.89;53.26
52839;BME280;39219;53.678;9.856;2024-03-23T11:48:02;100394.41;;;9.53;57.71
52839;BME280;39219;53.678;9.856;2024-03-23T11:50:28;100401.25;;;8.61;60.67
52839;BME280;39219;53.678;9.856;2024-03-23T11:53:06;100422.72;;;7.45;65.08
52839;BME280;39219;53.678;9.856;2024-03-23T11:55:39;100419.03;;;6.55;69.08
52839;BME280;39219;53.678;9.856;2024-03-23T11:58:07;100399.53;;;5.79;72.54
52839;BME280;39219;53.678;9.856;2024-03-23T12:00:33;100393.94;;;5.90;73.20
52839;BME280;39219;53.678;9.856;2024-03-23T12:03:00;100389.00;;;6.05;73.50
52839;BME280;39219;53.678;9.856;2024-03-23T12:05:26;100392.22;;;6.15;74.69
52839;BME280;39219;53.678;9.856;2024-03-23T12:07:54;100383.00;;;6.53;74.77
52839;BME280;39219;53.678;9.856;2024-03-23T12:10:19;100373.94;;;6.83;74.79
52839;BME280;39219;53.678;9.856;2024-03-23T12:12:46;100363.34;;;7.07;75.19
52839;BME280;39219;53.678;9.856;2024-03-23T12:15:14;100369.13;;;7.40;76.06
52839;BME280;39219;53.678;9.856;2024-03-23T12:17:41;100374.56;;;7.80;76.53
52839;BME280;39219;53.678;9.856;2024-03-23T12:20:07;100358.31;;;8.33;77.27
52839;BME280;39219;53.678;9.856;2024-03-23T12:22:34;100358.22;;;8.74;75.28
52839;BME280;39219;53.678;9.856;2024-03-23T12:25:00;100384.63;;;8.77;72.32
52839;BME280;39219;53.678;9.856;2024-03-23T12:27:27;100390.44;;;8.24;71.14
52839;BME280;39219;53.678;9.856;2024-03-23T12:29:52;100375.19;;;7.87;72.52
52839;BME280;39219;53.678;9.856;2024-03-23T12:32:20;100412.16;;;6.99;73.31
52839;BME280;39219;53.678;9.856;2024-03-23T12:34:46;100421.63;;;7.04;73.97
52839;BME280;39219;53.678;9.856;2024-03-23T12:37:13;100413.91;;;6.98;73.64
52839;BME280;39219;53.678;9.856;2024-03-23T12:39:38;100420.72;;;6.56;72.76
52839;BME280;39219;53.678;9.856;2024-03-23T12:42:05;100396.53;;;6.44;72.81
52839;BME280;39219;53.678;9.856;2024-03-23T12:44:31;100401.28;;;6.32;74.06
52839;BME280;39219;53.678;9.856;2024-03-23T12:46:57;100394.53;;;6.50;74.39
52839;BME280;39219;53.678;9.856;2024-03-23T12:49:24;100394.34;;;6.79;74.29
52839;BME280;39219;53.678;9.856;2024-03-23T12:51:54;100381.16;;;7.26;73.96
52839;BME280;39219;53.678;9.856;2024-03-23T12:54:19;100370.59;;;7.70;73.00
52839;BME280;39219;53.678;9.856;2024-03-23T12:56:46;100373.41;;;8.31;71.98
52839;BME280;39219;53.678;9.856;2024-03-23T12:59:11;100369.69;;;8.95;70.95
52839;BME280;39219;53.678;9.856;2024-03-23T13:01:38;100368.25;;;9.07;69.34
52839;BME280;39219;53.678;9.856;2024-03-23T13:04:04;100364.66;;;9.08;68.71
52839;BME280;39219;53.678;9.856;2024-03-23T13:06:32;100361.53;;;8.59;69.44
52839;BME280;39219;53.678;9.856;2024-03-23T13:08:59;100369.19;;;8.25;70.01
52839;BME280;39219;53.678;9.856;2024-03-23T13:11:26;100383.75;;;8.37;70.93
52839;BME280;39219;53.678;9.856;2024-03-23T13:13:52;100367.56;;;8.21;70.98
52839;BME280;39219;53.678;9.856;2024-03-23T13:16:18;100372.00;;;8.82;70.90
52839;BME280;39219;53.678;9.856;2024-03-23T13:18:44;100367.28;;;9.28;69.89
52839;BME280;39219;53.678;9.856;2024-03-23T13:21:10;100393.13;;;9.61;68.72
52839;BME280;39219;53.678;9.856;2024-03-23T13:23:37;100404.19;;;8.93;65.38
52839;BME280;39219;53.678;9.856;2024-03-23T13:26:06;100397.28;;;8.07;64.61
52839;BME280;39219;53.678;9.856;2024-03-23T13:28:33;100404.72;;;7.78;66.18
52839;BME280;39219;53.678;9.856;2024-03-23T13:31:00;100406.28;;;7.60;67.40
52839;BME280;39219;53.678;9.856;2024-03-23T13:33:29;100401.28;;;8.18;69.45
52839;BME280;39219;53.678;9.856;2024-03-23T13:35:57;100382.38;;;9.07;68.61
52839;BME280;39219;53.678;9.856;2024-03-23T13:38:23;100376.59;;;9.55;66.65
52839;BME280;39219;53.678;9.856;2024-03-23T13:40:55;100379.88;;;9.60;65.59
52839;BME280;39219;53.678;9.856;2024-03-23T13:43:21;100379.47;;;9.32;66.05
52839;BME280;39219;53.678;9.856;2024-03-23T13:45:49;100373.78;;;9.21;66.90
52839;BME280;39219;53.678;9.856;2024-03-23T13:48:17;100364.47;;;9.12;66.95